sensor_id;sensor_type;location;lat;lon;timestamp;temperature;humidity
21353;DHT22;10834;52.268;6.770;2023-04-19T00:00:19;9.30;99.90
21353;DHT22;10834;52.268;6.770;2023-04-19T00:03:06;9.30;99.90
21353;DHT22;10834;52.268;6.770;2023-04-19T00:05:53;9.30;99.90
21353;DHT22;10834;52.268;6.770;2023-04-19T00:08:45;9.30;99.90
21353;DHT22;10834;52.268;6.770;2023-04-19T00:11:31;9.20;99.90
21353;DHT22;10834;52.268;6.770;2023-04-19T00:14:17;9.20;99.90
21353;DHT22;10834;52.268;6.770;2023-04-19T00:17:03;9.10;99.90
21353;DHT22;10834;52.268;6.770;2023-04-19T00:19:49;9.00;99.90
21353;DHT22;10834;52.268;6.770;2023-04-19T00:22:35;9.10;99.90
21353;DHT22;10834;52.268;6.770;2023-04-19T00:25:22;9.00;99.90
21353;DHT22;10834;52.268;6.770;2023-04-19T00:28:08;9.00;99.90
21353;DHT22;10834;52.268;6.770;2023-04-19T00:30:54;9.00;99.90
21353;DHT22;10834;52.268;6.770;2023-04-19T00:33:40;8.90;99.90
21353;DHT22;10834;52.268;6.770;2023-04-19T00:36:26;8.90;99.90
21353;DHT22;10834;52.268;6.770;2023-04-19T00:39:12;8.90;99.90
21353;DHT22;10834;52.268;6.770;2023-04-19T00:41:58;8.90;99.90
21353;DHT22;10834;52.268;6.770;2023-04-19T00:44:44;8.80;99.90
21353;DHT22;10834;52.268;6.770;2023-04-19T00:47:30;8.80;99.90
21353;DHT22;10834;52.268;6.770;2023-04-19T00:50:16;8.70;99.90
21353;DHT22;10834;52.268;6.770;2023-04-19T00:53:02;8.70;99.90
21353;DHT22;10834;52.268;6.770;2023-04-19T00:55:49;8.70;99.90
21353;DHT22;10834;52.268;6.770;2023-04-19T00:58:38;8.70;99.90
21353;DHT22;10834;52.268;6.770;2023-04-19T01:01:24;8.70;99.90
21353;DHT22;10834;52.268;6.770;2023-04-19T01:04:10;8.80;99.90
21353;DHT22;10834;52.268;6.770;2023-04-19T01:06:56;8.80;99.90
21353;DHT22;10834;52.268;6.770;2023-04-19T01:09:43;8.80;99.90
21353;DHT22;10834;52.268;6.770;2023-04-19T01:12:29;8.90;99.90
21353;DHT22;10834;52.268;6.770;2023-04-19T01:15:15;8.90;99.90
21353;DHT22;10834;52.268;6.770;2023-04-19T01:18:01;8.90;99.90
21353;DHT22;10834;52.268;6.770;2023-04-19T01:20:47;8.90;99.90
21353;DHT22;10834;52.268;6.770;2023-04-19T01:23:34;9.00;99.90
21353;DHT22;10834;52.268;6.770;2023-04-19T01:26:20;9.00;99.90
21353;DHT22;10834;52.268;6.770;2023-04-19T01:29:07;9.10;99.90
21353;DHT22;10834;52.268;6.770;2023-04-19T01:31:53;9.00;99.90
21353;DHT22;10834;52.268;6.770;2023-04-19T01:34:39;9.10;99.90
21353;DHT22;10834;52.268;6.770;2023-04-19T01:37:25;9.00;99.90
21353;DHT22;10834;52.268;6.770;2023-04-19T01:40:11;9.00;99.90
21353;DHT22;10834;52.268;6.770;2023-04-19T01:42:58;9.00;99.90
21353;DHT22;10834;52.268;6.770;2023-04-19T01:45:44;8.90;99.90
21353;DHT22;10834;52.268;6.770;2023-04-19T01:48:30;9.00;99.90
21353;DHT22;10834;52.268;6.770;2023-04-19T01:51:16;9.00;99.90
21353;DHT22;10834;52.268;6.770;2023-04-19T01:54:03;8.90;99.90
21353;DHT22;10834;52.268;6.770;2023-04-19T01:56:49;8.90;99.90
21353;DHT22;10834;52.268;6.770;2023-04-19T01:59:35;8.90;99.90
21353;DHT22;10834;52.268;6.770;2023-04-19T02:02:21;8.90;99.90
21353;DHT22;10834;52.268;6.770;2023-04-19T02:05:07;8.90;99.90
21353;DHT22;10834;52.268;6.770;2023-04-19T02:07:53;8.90;99.90
21353;DHT22;10834;52.268;6.770;2023-04-19T02:10:39;8.90;99.90
21353;DHT22;10834;52.268;6.770;2023-04-19T02:13:25;9.00;99.90
21353;DHT22;10834;52.268;6.770;2023-04-19T02:16:11;9.00;99.90
21353;DHT22;10834;52.268;6.770;2023-04-19T02:18:57;9.00;99.90
21353;DHT22;10834;52.268;6.770;2023-04-19T02:21:43;9.00;99.90
21353;DHT22;10834;52.268;6.770;2023-04-19T02:24:29;9.00;99.90
21353;DHT22;10834;52.268;6.770;2023-04-19T02:27:16;9.00;99.90
21353;DHT22;10834;52.268;6.770;2023-04-19T02:30:02;8.90;99.90
21353;DHT22;10834;52.268;6.770;2023-04-19T02:32:48;8.90;99.90
21353;DHT22;10834;52.268;6.770;2023-04-19T02:35:35;8.80;99.90
21353;DHT22;10834;52.268;6.770;2023-04-19T02:38:21;8.80;99.90
21353;DHT22;10834;52.268;6.770;2023-04-19T02:41:07;8.80;99.90
21353;DHT22;10834;52.268;6.770;2023-04-19T02:43:53;8.70;99.90
21353;DHT22;10834;52.268;6.770;2023-04-19T02:46:39;8.60;99.90
21353;DHT22;10834;52.268;6.770;2023-04-19T02:49:25;8.50;99.90
21353;DHT22;10834;52.268;6.770;2023-04-19T02:52:11;8.40;99.90
21353;DHT22;10834;52.268;6.770;2023-04-19T02:54:57;8.40;99.90
21353;DHT22;10834;52.268;6.770;2023-04-19T02:57:43;8.30;99.90
21353;DHT22;10834;52.268;6.770;2023-04-19T03:00:30;8.30;99.90
21353;DHT22;10834;52.268;6.770;2023-04-19T03:03:16;8.20;99.90
21353;DHT22;10834;52.268;6.770;2023-04-19T03:06:02;8.20;99.90
21353;DHT22;10834;52.268;6.770;2023-04-19T03:08:48;8.20;99.90
21353;DHT22;10834;52.268;6.770;2023-04-19T03:11:34;8.10;99.90
21353;DHT22;10834;52.268;6.770;2023-04-19T03:14:21;8.10;99.90
21353;DHT22;10834;52.268;6.770;2023-04-19T03:17:07;8.20;99.90
21353;DHT22;10834;52.268;6.770;2023-04-19T03:19:54;8.30;99.90
21353;DHT22;10834;52.268;6.770;2023-04-19T03:22:41;8.40;99.90
21353;DHT22;10834;52.268;6.770;2023-04-19T03:25:27;8.50;99.90
21353;DHT22;10834;52.268;6.770;2023-04-19T03:28:13;8.50;99.90
21353;DHT22;10834;52.268;6.770;2023-04-19T03:30:59;8.60;99.90
21353;DHT22;10834;52.268;6.770;2023-04-19T03:33:45;8.60;99.90
21353;DHT22;10834;52.268;6.770;2023-04-19T03:36:31;8.70;99.90
21353;DHT22;10834;52.268;6.770;2023-04-19T03:39:17;8.70;99.90
21353;DHT22;10834;52.268;6.770;2023-04-19T03:42:03;8.80;99.90
21353;DHT22;10834;52.268;6.770;2023-04-19T03:44:49;8.80;99.90
21353;DHT22;10834;52.268;6.770;2023-04-19T03:47:36;8.80;99.90
21353;DHT22;10834;52.268;6.770;2023-04-19T03:50:22;8.80;99.90
21353;DHT22;10834;52.268;6.770;2023-04-19T03:53:08;8.90;99.90
21353;DHT22;10834;52.268;6.770;2023-04-19T03:55:54;8.90;99.90
21353;DHT22;10834;52.268;6.770;2023-04-19T03:58:40;8.90;99.90
21353;DHT22;10834;52.268;6.770;2023-04-19T04:01:26;8.90;99.90
21353;DHT22;10834;52.268;6.770;2023-04-19T04:04:12;8.90;99.90
21353;DHT22;10834;52.268;6.770;2023-04-19T04:06:58;8.90;99.90
21353;DHT22;10834;52.268;6.770;2023-04-19T04:09:44;8.90;99.90
21353;DHT22;10834;52.268;6.770;2023-04-19T04:12:32;9.00;99.90
21353;DHT22;10834;52.268;6.770;2023-04-19T04:15:18;8.90;99.90
21353;DHT22;10834;52.268;6.770;2023-04-19T04:18:04;8.90;99.90
21353;DHT22;10834;52.268;6.770;2023-04-19T04:20:50;8.90;99.90
21353;DHT22;10834;52.268;6.770;2023-04-19T04:23:36;8.90;99.90
21353;DHT22;10834;52.268;6.770;2023-04-19T04:26:23;8.90;99.90
21353;DHT22;10834;52.268;6.770;2023-04-19T04:29:10;8.90;99.90
21353;DHT22;10834;52.268;6.770;2023-04-19T04:31:56;8.90;99.90
21353;DHT22;10834;52.268;6.770;2023-04-19T04:34:42;8.90;99.90
21353;DHT22;10834;52.268;6.770;2023-04-19T04:37:28;8.80;99.90
21353;DHT22;10834;52.268;6.770;2023-04-19T04:40:19;8.80;99.90
21353;DHT22;10834;52.268;6.770;2023-04-19T04:43:05;8.80;99.90
21353;DHT22;10834;52.268;6.770;2023-04-19T04:45:51;8.80;99.90
21353;DHT22;10834;52.268;6.770;2023-04-19T04:48:40;8.80;99.90
21353;DHT22;10834;52.268;6.770;2023-04-19T04:51:26;8.70;99.90
21353;DHT22;10834;52.268;6.770;2023-04-19T04:54:12;8.70;99.90
21353;DHT22;10834;52.268;6.770;2023-04-19T04:56:59;8.60;99.90
21353;DHT22;10834;52.268;6.770;2023-04-19T04:59:45;8.60;99.90
21353;DHT22;10834;52.268;6.770;2023-04-19T05:02:32;8.50;99.90
21353;DHT22;10834;52.268;6.770;2023-04-19T05:05:19;8.40;99.90
21353;DHT22;10834;52.268;6.770;2023-04-19T05:08:04;8.40;99.90
21353;DHT22;10834;52.268;6.770;2023-04-19T05:10:51;8.30;99.90
21353;DHT22;10834;52.268;6.770;2023-04-19T05:13:37;8.30;99.90
21353;DHT22;10834;52.268;6.770;2023-04-19T05:16:23;8.10;99.90
21353;DHT22;10834;52.268;6.770;2023-04-19T05:19:09;8.10;99.90
21353;DHT22;10834;52.268;6.770;2023-04-19T05:21:55;8.00;99.90
21353;DHT22;10834;52.268;6.770;2023-04-19T05:24:41;7.90;99.90
21353;DHT22;10834;52.268;6.770;2023-04-19T05:27:27;7.80;99.90
21353;DHT22;10834;52.268;6.770;2023-04-19T05:30:13;7.80;99.90
21353;DHT22;10834;52.268;6.770;2023-04-19T05:32:59;7.80;99.90
21353;DHT22;10834;52.268;6.770;2023-04-19T05:35:45;7.80;99.90
21353;DHT22;10834;52.268;6.770;2023-04-19T05:38:31;7.80;99.90
21353;DHT22;10834;52.268;6.770;2023-04-19T05:41:17;7.80;99.90
21353;DHT22;10834;52.268;6.770;2023-04-19T05:44:03;7.70;99.90
21353;DHT22;10834;52.268;6.770;2023-04-19T05:46:49;7.80;99.90
21353;DHT22;10834;52.268;6.770;2023-04-19T05:49:35;7.80;99.90
21353;DHT22;10834;52.268;6.770;2023-04-19T05:52:21;7.80;99.90
21353;DHT22;10834;52.268;6.770;2023-04-19T05:55:08;7.80;99.70
21353;DHT22;10834;52.268;6.770;2023-04-19T05:57:54;7.90;99.80
21353;DHT22;10834;52.268;6.770;2023-04-19T06:00:40;7.90;99.50
21353;DHT22;10834;52.268;6.770;2023-04-19T06:03:27;8.00;99.20
21353;DHT22;10834;52.268;6.770;2023-04-19T06:06:13;8.10;98.50
21353;DHT22;10834;52.268;6.770;2023-04-19T06:08:59;8.10;98.30
21353;DHT22;10834;52.268;6.770;2023-04-19T06:11:45;8.20;97.00
21353;DHT22;10834;52.268;6.770;2023-04-19T06:14:31;8.20;98.00
21353;DHT22;10834;52.268;6.770;2023-04-19T06:17:17;8.30;95.70
21353;DHT22;10834;52.268;6.770;2023-04-19T06:20:09;8.30;95.30
21353;DHT22;10834;52.268;6.770;2023-04-19T06:22:55;8.50;94.60
21353;DHT22;10834;52.268;6.770;2023-04-19T06:25:41;8.60;93.40
21353;DHT22;10834;52.268;6.770;2023-04-19T06:28:27;8.70;92.30
21353;DHT22;10834;52.268;6.770;2023-04-19T06:31:13;8.80;88.90
21353;DHT22;10834;52.268;6.770;2023-04-19T06:33:59;9.20;89.70
21353;DHT22;10834;52.268;6.770;2023-04-19T06:36:45;9.70;86.30
21353;DHT22;10834;52.268;6.770;2023-04-19T06:39:31;9.90;81.80
21353;DHT22;10834;52.268;6.770;2023-04-19T06:42:17;10.20;76.50
21353;DHT22;10834;52.268;6.770;2023-04-19T06:45:05;11.40;74.60
21353;DHT22;10834;52.268;6.770;2023-04-19T06:47:51;12.40;63.20
21353;DHT22;10834;52.268;6.770;2023-04-19T06:50:37;14.50;55.70
21353;DHT22;10834;52.268;6.770;2023-04-19T06:53:23;18.00;48.00
21353;DHT22;10834;52.268;6.770;2023-04-19T06:56:09;20.70;41.30
21353;DHT22;10834;52.268;6.770;2023-04-19T06:58:57;21.70;38.00
21353;DHT22;10834;52.268;6.770;2023-04-19T07:01:43;20.40;38.40
21353;DHT22;10834;52.268;6.770;2023-04-19T07:04:29;21.50;37.80
21353;DHT22;10834;52.268;6.770;2023-04-19T07:07:16;24.10;34.50
21353;DHT22;10834;52.268;6.770;2023-04-19T07:10:02;26.30;32.10
21353;DHT22;10834;52.268;6.770;2023-04-19T07:12:49;28.30;30.00
21353;DHT22;10834;52.268;6.770;2023-04-19T07:15:35;29.50;28.50
21353;DHT22;10834;52.268;6.770;2023-04-19T07:18:22;30.60;27.70
21353;DHT22;10834;52.268;6.770;2023-04-19T07:21:08;31.60;27.30
21353;DHT22;10834;52.268;6.770;2023-04-19T07:23:54;32.90;26.10
21353;DHT22;10834;52.268;6.770;2023-04-19T07:26:40;34.00;25.60
21353;DHT22;10834;52.268;6.770;2023-04-19T07:29:26;34.70;24.70
21353;DHT22;10834;52.268;6.770;2023-04-19T07:32:12;35.30;23.80
21353;DHT22;10834;52.268;6.770;2023-04-19T07:34:58;35.60;23.40
21353;DHT22;10834;52.268;6.770;2023-04-19T07:37:44;35.70;23.10
21353;DHT22;10834;52.268;6.770;2023-04-19T07:40:31;36.30;23.40
21353;DHT22;10834;52.268;6.770;2023-04-19T07:43:17;36.60;22.60
21353;DHT22;10834;52.268;6.770;2023-04-19T07:46:13;35.90;22.60
21353;DHT22;10834;52.268;6.770;2023-04-19T07:49:00;36.50;22.40
21353;DHT22;10834;52.268;6.770;2023-04-19T07:51:46;36.50;21.90
21353;DHT22;10834;52.268;6.770;2023-04-19T07:54:32;37.00;22.20
21353;DHT22;10834;52.268;6.770;2023-04-19T07:57:19;37.50;21.90
21353;DHT22;10834;52.268;6.770;2023-04-19T08:00:05;38.10;22.50
21353;DHT22;10834;52.268;6.770;2023-04-19T08:02:52;38.50;21.60
21353;DHT22;10834;52.268;6.770;2023-04-19T08:05:38;39.10;21.80
21353;DHT22;10834;52.268;6.770;2023-04-19T08:08:24;39.50;21.50
21353;DHT22;10834;52.268;6.770;2023-04-19T08:11:10;39.80;21.10
21353;DHT22;10834;52.268;6.770;2023-04-19T08:13:56;40.40;21.30
21353;DHT22;10834;52.268;6.770;2023-04-19T08:16:42;40.60;20.70
21353;DHT22;10834;52.268;6.770;2023-04-19T08:19:29;40.70;20.90
21353;DHT22;10834;52.268;6.770;2023-04-19T08:22:15;40.70;20.60
21353;DHT22;10834;52.268;6.770;2023-04-19T08:25:02;40.40;19.90
21353;DHT22;10834;52.268;6.770;2023-04-19T08:27:48;39.60;19.80
21353;DHT22;10834;52.268;6.770;2023-04-19T08:30:35;39.20;19.70
21353;DHT22;10834;52.268;6.770;2023-04-19T08:33:21;39.10;20.70
21353;DHT22;10834;52.268;6.770;2023-04-19T08:36:07;39.60;20.00
21353;DHT22;10834;52.268;6.770;2023-04-19T08:38:53;39.50;20.20
21353;DHT22;10834;52.268;6.770;2023-04-19T08:41:39;39.60;19.50
21353;DHT22;10834;52.268;6.770;2023-04-19T08:44:27;39.40;19.90
21353;DHT22;10834;52.268;6.770;2023-04-19T08:47:13;39.70;20.60
21353;DHT22;10834;52.268;6.770;2023-04-19T08:50:05;39.90;19.80
21353;DHT22;10834;52.268;6.770;2023-04-19T08:52:51;39.70;19.80
21353;DHT22;10834;52.268;6.770;2023-04-19T08:55:39;38.60;19.40
21353;DHT22;10834;52.268;6.770;2023-04-19T08:58:26;38.30;20.10
21353;DHT22;10834;52.268;6.770;2023-04-19T09:01:14;39.00;20.20
21353;DHT22;10834;52.268;6.770;2023-04-19T09:04:05;38.40;19.90
21353;DHT22;10834;52.268;6.770;2023-04-19T09:06:51;38.50;20.00
21353;DHT22;10834;52.268;6.770;2023-04-19T09:09:37;38.60;19.70
21353;DHT22;10834;52.268;6.770;2023-04-19T09:12:27;38.90;20.50
21353;DHT22;10834;52.268;6.770;2023-04-19T09:15:12;39.20;19.20
21353;DHT22;10834;52.268;6.770;2023-04-19T09:18:08;38.50;18.80
21353;DHT22;10834;52.268;6.770;2023-04-19T09:20:55;36.50;19.40
21353;DHT22;10834;52.268;6.770;2023-04-19T09:23:46;35.60;20.60
21353;DHT22;10834;52.268;6.770;2023-04-19T09:26:33;35.80;20.20
21353;DHT22;10834;52.268;6.770;2023-04-19T09:29:19;36.00;20.10
21353;DHT22;10834;52.268;6.770;2023-04-19T09:32:06;35.80;20.40
21353;DHT22;10834;52.268;6.770;2023-04-19T09:34:55;36.40;20.50
21353;DHT22;10834;52.268;6.770;2023-04-19T09:37:41;36.30;20.40
21353;DHT22;10834;52.268;6.770;2023-04-19T09:40:28;36.20;21.10
21353;DHT22;10834;52.268;6.770;2023-04-19T09:43:22;36.50;20.70
21353;DHT22;10834;52.268;6.770;2023-04-19T09:46:32;36.90;20.70
21353;DHT22;10834;52.268;6.770;2023-04-19T09:49:20;37.60;19.70
21353;DHT22;10834;52.268;6.770;2023-04-19T09:52:13;37.50;19.70
21353;DHT22;10834;52.268;6.770;2023-04-19T09:55:00;37.50;20.10
21353;DHT22;10834;52.268;6.770;2023-04-19T09:57:47;37.70;20.50
21353;DHT22;10834;52.268;6.770;2023-04-19T10:00:34;37.20;20.00
21353;DHT22;10834;52.268;6.770;2023-04-19T10:03:21;37.00;19.80
21353;DHT22;10834;52.268;6.770;2023-04-19T10:06:10;37.20;20.50
21353;DHT22;10834;52.268;6.770;2023-04-19T10:08:59;37.50;19.80
21353;DHT22;10834;52.268;6.770;2023-04-19T10:11:50;36.60;18.30
21353;DHT22;10834;52.268;6.770;2023-04-19T10:14:38;35.90;19.70
21353;DHT22;10834;52.268;6.770;2023-04-19T10:17:25;35.60;19.70
21353;DHT22;10834;52.268;6.770;2023-04-19T10:20:19;34.80;18.60
21353;DHT22;10834;52.268;6.770;2023-04-19T10:23:07;34.40;19.80
21353;DHT22;10834;52.268;6.770;2023-04-19T10:25:55;34.40;19.20
21353;DHT22;10834;52.268;6.770;2023-04-19T10:28:44;34.50;19.30
21353;DHT22;10834;52.268;6.770;2023-04-19T10:31:32;34.20;19.90
21353;DHT22;10834;52.268;6.770;2023-04-19T10:34:36;34.40;20.40
21353;DHT22;10834;52.268;6.770;2023-04-19T10:37:24;34.00;20.00
21353;DHT22;10834;52.268;6.770;2023-04-19T10:40:10;34.10;21.40
21353;DHT22;10834;52.268;6.770;2023-04-19T10:46:08;33.30;19.50
21353;DHT22;10834;52.268;6.770;2023-04-19T10:49:02;33.00;20.00
21353;DHT22;10834;52.268;6.770;2023-04-19T10:51:49;32.80;21.60
21353;DHT22;10834;52.268;6.770;2023-04-19T10:54:42;31.60;21.40
21353;DHT22;10834;52.268;6.770;2023-04-19T10:58:04;29.60;23.50
21353;DHT22;10834;52.268;6.770;2023-04-19T11:00:51;27.90;23.00
21353;DHT22;10834;52.268;6.770;2023-04-19T11:03:56;26.60;23.10
21353;DHT22;10834;52.268;6.770;2023-04-19T11:09:39;24.30;25.00
21353;DHT22;10834;52.268;6.770;2023-04-19T11:12:29;23.60;26.00
21353;DHT22;10834;52.268;6.770;2023-04-19T11:15:15;23.20;26.60
21353;DHT22;10834;52.268;6.770;2023-04-19T11:18:01;23.10;27.80
21353;DHT22;10834;52.268;6.770;2023-04-19T11:20:52;23.00;26.50
21353;DHT22;10834;52.268;6.770;2023-04-19T11:23:39;22.80;28.00
21353;DHT22;10834;52.268;6.770;2023-04-19T11:26:26;22.50;26.60
21353;DHT22;10834;52.268;6.770;2023-04-19T11:29:12;22.40;27.90
21353;DHT22;10834;52.268;6.770;2023-04-19T11:31:59;22.50;28.70
21353;DHT22;10834;52.268;6.770;2023-04-19T11:34:45;22.50;28.80
21353;DHT22;10834;52.268;6.770;2023-04-19T11:37:32;22.30;26.90
21353;DHT22;10834;52.268;6.770;2023-04-19T11:40:20;21.80;27.30
21353;DHT22;10834;52.268;6.770;2023-04-19T11:43:06;21.50;26.90
21353;DHT22;10834;52.268;6.770;2023-04-19T11:45:53;21.40;28.00
21353;DHT22;10834;52.268;6.770;2023-04-19T11:48:49;21.30;26.30
21353;DHT22;10834;52.268;6.770;2023-04-19T11:51:40;21.10;28.10
21353;DHT22;10834;52.268;6.770;2023-04-19T11:54:27;21.30;29.10
21353;DHT22;10834;52.268;6.770;2023-04-19T11:57:13;21.30;28.40
21353;DHT22;10834;52.268;6.770;2023-04-19T12:00:06;21.40;29.00
21353;DHT22;10834;52.268;6.770;2023-04-19T12:02:56;21.60;29.60
21353;DHT22;10834;52.268;6.770;2023-04-19T12:05:57;21.70;28.40
21353;DHT22;10834;52.268;6.770;2023-04-19T12:08:49;21.60;29.10
21353;DHT22;10834;52.268;6.770;2023-04-19T12:11:45;21.70;29.60
21353;DHT22;10834;52.268;6.770;2023-04-19T12:14:34;21.90;29.10
21353;DHT22;10834;52.268;6.770;2023-04-19T12:17:20;21.90;28.90
21353;DHT22;10834;52.268;6.770;2023-04-19T12:20:07;21.80;28.70
21353;DHT22;10834;52.268;6.770;2023-04-19T12:22:53;21.80;29.20
21353;DHT22;10834;52.268;6.770;2023-04-19T12:25:40;21.80;29.40
21353;DHT22;10834;52.268;6.770;2023-04-19T12:28:26;21.70;29.70
21353;DHT22;10834;52.268;6.770;2023-04-19T12:31:12;21.60;29.20
21353;DHT22;10834;52.268;6.770;2023-04-19T12:33:58;21.60;30.00
21353;DHT22;10834;52.268;6.770;2023-04-19T12:36:44;21.40;28.40
21353;DHT22;10834;52.268;6.770;2023-04-19T12:39:30;21.20;29.50
21353;DHT22;10834;52.268;6.770;2023-04-19T12:42:16;21.10;29.00
21353;DHT22;10834;52.268;6.770;2023-04-19T12:45:03;21.20;29.60
21353;DHT22;10834;52.268;6.770;2023-04-19T12:47:49;21.20;30.20
21353;DHT22;10834;52.268;6.770;2023-04-19T12:50:35;21.20;29.70
21353;DHT22;10834;52.268;6.770;2023-04-19T12:53:21;21.00;29.80
21353;DHT22;10834;52.268;6.770;2023-04-19T12:56:09;21.00;31.30
21353;DHT22;10834;52.268;6.770;2023-04-19T12:58:57;21.00;30.20
21353;DHT22;10834;52.268;6.770;2023-04-19T13:01:43;20.80;30.80
21353;DHT22;10834;52.268;6.770;2023-04-19T13:04:29;20.80;31.40
21353;DHT22;10834;52.268;6.770;2023-04-19T13:07:15;21.00;31.80
21353;DHT22;10834;52.268;6.770;2023-04-19T13:10:02;21.20;31.20
21353;DHT22;10834;52.268;6.770;2023-04-19T13:12:48;21.30;31.90
21353;DHT22;10834;52.268;6.770;2023-04-19T13:15:34;21.40;32.00
21353;DHT22;10834;52.268;6.770;2023-04-19T13:18:20;21.50;31.60
21353;DHT22;10834;52.268;6.770;2023-04-19T13:21:07;21.60;31.70
21353;DHT22;10834;52.268;6.770;2023-04-19T13:23:53;21.40;30.50
21353;DHT22;10834;52.268;6.770;2023-04-19T13:26:39;21.10;29.70
21353;DHT22;10834;52.268;6.770;2023-04-19T13:29:25;20.70;29.70
21353;DHT22;10834;52.268;6.770;2023-04-19T13:32:11;20.50;30.70
21353;DHT22;10834;52.268;6.770;2023-04-19T13:34:57;20.30;31.40
21353;DHT22;10834;52.268;6.770;2023-04-19T13:37:43;20.40;32.90
21353;DHT22;10834;52.268;6.770;2023-04-19T13:40:31;20.40;32.50
21353;DHT22;10834;52.268;6.770;2023-04-19T13:43:17;20.10;31.50
21353;DHT22;10834;52.268;6.770;2023-04-19T13:46:04;20.00;32.40
21353;DHT22;10834;52.268;6.770;2023-04-19T13:48:50;19.90;32.20
21353;DHT22;10834;52.268;6.770;2023-04-19T13:51:36;19.70;31.40
21353;DHT22;10834;52.268;6.770;2023-04-19T13:54:22;19.60;33.00
21353;DHT22;10834;52.268;6.770;2023-04-19T13:57:08;19.60;33.40
21353;DHT22;10834;52.268;6.770;2023-04-19T13:59:54;19.50;33.40
21353;DHT22;10834;52.268;6.770;2023-04-19T14:02:40;19.40;33.60
21353;DHT22;10834;52.268;6.770;2023-04-19T14:05:26;19.20;32.70
21353;DHT22;10834;52.268;6.770;2023-04-19T14:08:12;19.00;31.80
21353;DHT22;10834;52.268;6.770;2023-04-19T14:10:58;18.80;32.20
21353;DHT22;10834;52.268;6.770;2023-04-19T14:13:45;18.70;33.30
21353;DHT22;10834;52.268;6.770;2023-04-19T14:16:32;18.60;34.20
21353;DHT22;10834;52.268;6.770;2023-04-19T14:19:18;18.60;34.50
21353;DHT22;10834;52.268;6.770;2023-04-19T14:22:05;18.70;34.80
21353;DHT22;10834;52.268;6.770;2023-04-19T14:24:51;18.70;35.70
21353;DHT22;10834;52.268;6.770;2023-04-19T14:27:37;18.70;35.10
21353;DHT22;10834;52.268;6.770;2023-04-19T14:30:23;18.80;36.20
21353;DHT22;10834;52.268;6.770;2023-04-19T14:33:10;18.90;35.60
21353;DHT22;10834;52.268;6.770;2023-04-19T14:35:56;18.80;34.30
21353;DHT22;10834;52.268;6.770;2023-04-19T14:38:43;18.70;34.20
21353;DHT22;10834;52.268;6.770;2023-04-19T14:41:28;18.50;35.00
21353;DHT22;10834;52.268;6.770;2023-04-19T14:44:15;18.50;35.80
21353;DHT22;10834;52.268;6.770;2023-04-19T14:47:01;18.20;32.90
21353;DHT22;10834;52.268;6.770;2023-04-19T14:49:46;18.00;34.50
21353;DHT22;10834;52.268;6.770;2023-04-19T14:52:32;17.90;35.20
21353;DHT22;10834;52.268;6.770;2023-04-19T14:55:19;17.90;36.60
21353;DHT22;10834;52.268;6.770;2023-04-19T14:58:05;18.00;36.30
21353;DHT22;10834;52.268;6.770;2023-04-19T15:00:51;18.10;34.70
21353;DHT22;10834;52.268;6.770;2023-04-19T15:03:38;18.00;35.10
21353;DHT22;10834;52.268;6.770;2023-04-19T15:06:25;17.80;36.80
21353;DHT22;10834;52.268;6.770;2023-04-19T15:09:11;17.70;37.40
21353;DHT22;10834;52.268;6.770;2023-04-19T15:11:57;17.60;37.60
21353;DHT22;10834;52.268;6.770;2023-04-19T15:14:43;17.60;38.30
21353;DHT22;10834;52.268;6.770;2023-04-19T15:17:29;17.70;36.50
21353;DHT22;10834;52.268;6.770;2023-04-19T15:20:15;17.70;36.20
21353;DHT22;10834;52.268;6.770;2023-04-19T15:23:01;17.70;36.60
21353;DHT22;10834;52.268;6.770;2023-04-19T15:25:47;17.60;36.60
21353;DHT22;10834;52.268;6.770;2023-04-19T15:28:34;17.40;36.70
21353;DHT22;10834;52.268;6.770;2023-04-19T15:31:31;17.20;36.60
21353;DHT22;10834;52.268;6.770;2023-04-19T15:34:20;16.90;36.90
21353;DHT22;10834;52.268;6.770;2023-04-19T15:37:06;16.70;38.20
21353;DHT22;10834;52.268;6.770;2023-04-19T15:39:52;16.50;37.40
21353;DHT22;10834;52.268;6.770;2023-04-19T15:42:39;16.30;37.60
21353;DHT22;10834;52.268;6.770;2023-04-19T15:45:25;16.30;36.80
21353;DHT22;10834;52.268;6.770;2023-04-19T15:48:11;16.10;36.10
21353;DHT22;10834;52.268;6.770;2023-04-19T15:50:57;15.90;37.20
21353;DHT22;10834;52.268;6.770;2023-04-19T15:53:43;15.70;37.60
21353;DHT22;10834;52.268;6.770;2023-04-19T15:56:29;15.60;37.50
21353;DHT22;10834;52.268;6.770;2023-04-19T15:59:16;15.50;38.90
21353;DHT22;10834;52.268;6.770;2023-04-19T16:02:02;15.40;38.70
21353;DHT22;10834;52.268;6.770;2023-04-19T16:04:49;15.30;39.00
21353;DHT22;10834;52.268;6.770;2023-04-19T16:07:35;15.30;38.00
21353;DHT22;10834;52.268;6.770;2023-04-19T16:10:21;15.30;37.70
21353;DHT22;10834;52.268;6.770;2023-04-19T16:13:07;15.40;38.60
21353;DHT22;10834;52.268;6.770;2023-04-19T16:15:53;15.40;38.20
21353;DHT22;10834;52.268;6.770;2023-04-19T16:18:39;15.30;37.40
21353;DHT22;10834;52.268;6.770;2023-04-19T16:21:25;15.30;38.30
21353;DHT22;10834;52.268;6.770;2023-04-19T16:24:14;15.30;38.40
21353;DHT22;10834;52.268;6.770;2023-04-19T16:27:00;15.40;37.30
21353;DHT22;10834;52.268;6.770;2023-04-19T16:29:47;15.40;37.50
21353;DHT22;10834;52.268;6.770;2023-04-19T16:32:33;15.30;37.20
21353;DHT22;10834;52.268;6.770;2023-04-19T16:35:19;15.20;35.30
21353;DHT22;10834;52.268;6.770;2023-04-19T16:38:05;15.00;37.00
21353;DHT22;10834;52.268;6.770;2023-04-19T16:40:51;14.80;37.10
21353;DHT22;10834;52.268;6.770;2023-04-19T16:43:38;14.60;38.20
21353;DHT22;10834;52.268;6.770;2023-04-19T16:46:24;14.50;37.60
21353;DHT22;10834;52.268;6.770;2023-04-19T16:49:10;14.40;37.30
21353;DHT22;10834;52.268;6.770;2023-04-19T16:51:56;14.30;37.10
21353;DHT22;10834;52.268;6.770;2023-04-19T16:54:43;14.30;36.60
21353;DHT22;10834;52.268;6.770;2023-04-19T16:57:30;14.20;37.10
21353;DHT22;10834;52.268;6.770;2023-04-19T17:00:16;14.00;37.40
21353;DHT22;10834;52.268;6.770;2023-04-19T17:03:03;13.90;37.80
21353;DHT22;10834;52.268;6.770;2023-04-19T17:05:49;13.80;35.70
21353;DHT22;10834;52.268;6.770;2023-04-19T17:08:35;13.80;35.10
21353;DHT22;10834;52.268;6.770;2023-04-19T17:11:23;13.60;35.40
21353;DHT22;10834;52.268;6.770;2023-04-19T17:14:08;13.60;34.50
21353;DHT22;10834;52.268;6.770;2023-04-19T17:16:54;13.50;34.20
21353;DHT22;10834;52.268;6.770;2023-04-19T17:19:40;13.40;34.20
21353;DHT22;10834;52.268;6.770;2023-04-19T17:22:26;13.30;35.50
21353;DHT22;10834;52.268;6.770;2023-04-19T17:25:12;13.20;37.00
21353;DHT22;10834;52.268;6.770;2023-04-19T17:27:58;13.10;35.50
21353;DHT22;10834;52.268;6.770;2023-04-19T17:30:45;13.00;35.30
21353;DHT22;10834;52.268;6.770;2023-04-19T17:33:31;12.90;36.00
21353;DHT22;10834;52.268;6.770;2023-04-19T17:36:17;12.90;35.10
21353;DHT22;10834;52.268;6.770;2023-04-19T17:39:04;12.90;36.50
21353;DHT22;10834;52.268;6.770;2023-04-19T17:41:51;12.80;36.30
21353;DHT22;10834;52.268;6.770;2023-04-19T17:44:37;12.70;36.00
21353;DHT22;10834;52.268;6.770;2023-04-19T17:47:23;12.70;34.90